Time;durP1;ratioP1;P1;durP2;ratioP2;P2;SDS_P1;SDS_P2;PMS_P1;PMS_P2;Temp;Humidity;BMP_temperature;BMP_pressure;BME280_temperature;BME280_humidity;BME280_pressure;Samples;Min_cycle;Max_cycle;Signal;HPM_P1;HPM_P2
2022/05/25 00:00:35;;;;;;;17.02;9.68;;;;;;;10.41;55.77;100178.18;1668720;85;21821;-75
2022/05/25 00:03:05;;;;;;;14.03;9.50;;;;;;;10.36;55.92;100180.86;1652006;86;21033;-73
2022/05/25 00:05:34;;;;;;;14.65;10.10;;;;;;;10.32;55.92;100186.37;1642069;86;21047;-72
2022/05/25 00:08:00;;;;;;;15.30;9.78;;;;;;;10.29;55.99;100181.34;1649308;86;21064;-72
2022/05/25 00:10:27;;;;;;;14.33;10.30;;;;;;;10.28;55.86;100184.12;1659755;86;20957;-72
2022/05/25 00:12:56;;;;;;;14.13;9.68;;;;;;;10.24;55.78;100181.38;1705978;84;23586;-72
2022/05/25 00:15:24;;;;;;;14.20;9.85;;;;;;;10.21;55.76;100186.37;1699693;82;21080;-73
2022/05/25 00:17:50;;;;;;;16.17;9.63;;;;;;;10.16;55.72;100192.52;1703773;82;21074;-73
2022/05/25 00:20:18;;;;;;;15.30;9.70;;;;;;;10.11;55.81;100183.28;1697347;83;20960;-73
2022/05/25 00:22:53;;;;;;;15.38;10.10;;;;;;;10.04;55.98;100187.75;1708162;83;21031;-73
2022/05/25 00:25:30;;;;;;;17.67;9.80;;;;;;;10.00;56.22;100196.02;1659479;85;21866;-71
2022/05/25 00:27:58;;;;;;;16.75;10.18;;;;;;;9.96;56.33;100193.28;1703406;83;21008;-72
2022/05/25 00:30:25;;;;;;;13.55;9.70;;;;;;;9.91;56.50;100192.31;1709446;83;21015;-72
2022/05/25 00:32:55;;;;;;;17.50;9.88;;;;;;;9.85;56.87;100193.30;1714059;82;21408;-72
2022/05/25 00:35:23;;;;;;;13.98;10.65;;;;;;;9.80;57.14;100192.81;1709195;82;21545;-73
2022/05/25 00:37:49;;;;;;;15.20;10.18;;;;;;;9.74;57.31;100196.27;1706568;83;21539;-72
2022/05/25 00:40:21;;;;;;;19.92;10.40;;;;;;;9.73;57.48;100191.12;1691299;84;21091;-73
2022/05/25 00:42:49;;;;;;;18.12;10.10;;;;;;;9.71;57.60;100192.56;1655365;85;20977;-72
2022/05/25 00:45:15;;;;;;;16.65;10.30;;;;;;;9.68;57.63;100195.45;1666307;85;20985;-72
2022/05/25 00:47:44;;;;;;;15.72;10.63;;;;;;;9.68;57.59;100193.30;1653309;86;21060;-72
2022/05/25 00:50:13;;;;;;;17.00;11.15;;;;;;;9.66;57.48;100195.23;1671493;84;21807;-72
2022/05/25 00:52:44;;;;;;;17.15;11.43;;;;;;;9.65;57.31;100196.16;1683575;84;21057;-73
2022/05/25 00:55:14;;;;;;;18.95;11.80;;;;;;;9.63;57.21;100195.45;1663494;86;21048;-72
2022/05/25 00:57:44;;;;;;;19.70;11.93;;;;;;;9.58;57.24;100203.73;1664220;86;21140;-72
2022/05/25 01:00:21;;;;;;;16.20;11.65;;;;;;;9.54;57.32;100200.11;1664030;86;21060;-72
2022/05/25 01:02:53;;;;;;;18.50;11.55;;;;;;;9.51;57.52;100205.64;1665870;85;21884;-72
2022/05/25 01:05:24;;;;;;;17.87;11.80;;;;;;;9.50;57.68;100210.55;1664746;86;21051;-72
2022/05/25 01:08:02;;;;;;;16.75;11.35;;;;;;;9.48;57.73;100202.77;1660752;84;21532;-73
2022/05/25 01:11:05;;;;;;;15.03;10.90;;;;;;;9.46;57.65;100208.16;1663810;84;21142;-72
2022/05/25 01:13:58;;;;;;;16.83;11.07;;;;;;;9.44;57.61;100209.22;1665817;85;21080;-71
2022/05/25 01:16:42;;;;;;;15.03;10.82;;;;;;;9.39;57.62;100213.54;1646155;86;21748;-73
2022/05/25 01:19:45;;;;;;;16.15;10.88;;;;;;;9.35;57.87;100211.24;1665349;86;20989;-72
2022/05/25 01:22:51;;;;;;;14.98;10.80;;;;;;;9.34;57.88;100209.56;1642493;86;21451;-73
2022/05/25 01:25:58;;;;;;;16.80;10.58;;;;;;;9.30;57.76;100208.14;1664179;84;21046;-73
2022/05/25 01:28:59;;;;;;;17.42;10.82;;;;;;;9.26;57.75;100214.58;1638258;86;20986;-73
2022/05/25 01:32:23;;;;;;;15.38;10.58;;;;;;;9.19;58.00;100215.55;1665121;86;22361;-72
2022/05/25 01:35:30;;;;;;;20.60;11.53;;;;;;;9.14;57.91;100214.56;1664477;86;21629;-73
2022/05/25 01:38:04;;;;;;;18.62;11.97;;;;;;;9.13;57.96;100211.57;1664892;86;20962;-72
2022/05/25 01:41:00;;;;;;;17.37;12.07;;;;;;;9.13;57.91;100217.32;1666774;84;21133;-71
2022/05/25 01:43:45;;;;;;;15.72;11.80;;;;;;;9.12;57.89;100220.91;1644830;86;20984;-72
2022/05/25 01:46:26;;;;;;;18.02;13.58;;;;;;;9.09;58.20;100221.99;1665681;85;21971;-74
2022/05/25 01:48:55;;;;;;;17.65;13.05;;;;;;;9.06;58.35;100222.69;1683098;83;21016;-73
2022/05/25 01:51:36;;;;;;;18.52;12.70;;;;;;;9.03;58.27;100221.13;1696647;83;21020;-72
2022/05/25 01:54:04;;;;;;;17.62;12.65;;;;;;;9.01;58.29;100222.20;1714560;83;21009;-73
2022/05/25 01:56:34;;;;;;;21.85;12.82;;;;;;;8.97;58.37;100221.58;1720588;83;20988;-73
2022/05/25 01:59:03;;;;;;;17.12;12.60;;;;;;;8.94;58.62;100228.41;1726814;81;21907;-72
2022/05/25 02:01:31;;;;;;;18.32;12.95;;;;;;;8.90;58.79;100229.60;1688330;85;20996;-72
2022/05/25 02:06:55;;;;;;;17.30;12.13;;;;;;;8.81;59.09;100236.39;1720680;83;21051;-73
2022/05/25 02:09:44;;;;;;;17.80;12.30;;;;;;;8.80;59.29;100236.51;1724391;83;21062;-71
2022/05/25 02:12:39;;;;;;;16.30;12.53;;;;;;;8.75;59.40;100234.20;1724149;81;22789;-71
2022/05/25 02:15:11;;;;;;;16.93;11.75;;;;;;;8.72;59.47;100240.18;1723123;81;21126;-72
2022/05/25 02:18:06;;;;;;;17.98;12.88;;;;;;;8.68;59.52;100243.49;1721896;82;21013;-71
2022/05/25 02:21:14;;;;;;;18.62;14.25;;;;;;;8.68;59.56;100246.61;1724337;83;21090;-71
2022/05/25 02:23:56;;;;;;;19.55;12.80;;;;;;;8.69;59.52;100249.63;1718955;82;21064;-71
2022/05/25 02:26:37;;;;;;;19.75;12.45;;;;;;;8.68;59.52;100253.19;1723726;83;21849;-71
2022/05/25 02:29:26;;;;;;;16.93;12.53;;;;;;;8.67;59.56;100252.83;1723990;83;21052;-71
2022/05/25 02:32:04;;;;;;;17.48;12.00;;;;;;;8.69;59.58;100256.21;1730144;81;21043;-72
2022/05/25 02:34:32;;;;;;;15.85;12.63;;;;;;;8.70;59.67;100255.26;1734914;81;21084;-72
2022/05/25 02:36:59;;;;;;;22.40;12.13;;;;;;;8.72;59.65;100256.81;1724234;83;21016;-72
2022/05/25 02:39:25;;;;;;;22.27;12.55;;;;;;;8.74;59.77;100261.48;1724044;83;22471;-72
2022/05/25 02:41:55;;;;;;;17.42;11.85;;;;;;;8.76;59.91;100264.84;1721449;83;21467;-72
2022/05/25 02:44:23;;;;;;;16.23;12.37;;;;;;;8.79;60.07;100263.32;1718962;82;21124;-72
2022/05/25 02:46:49;;;;;;;18.87;13.22;;;;;;;8.83;60.16;100263.92;1706800;83;20966;-71
2022/05/25 02:49:16;;;;;;;17.17;13.25;;;;;;;8.86;60.28;100267.16;1710531;82;21001;-73
2022/05/25 02:51:42;;;;;;;23.10;13.62;;;;;;;8.93;60.36;100269.35;1739169;82;22526;-72
2022/05/25 02:54:10;;;;;;;18.80;13.38;;;;;;;8.99;60.27;100268.91;1723922;82;20973;-72
2022/05/25 02:56:37;;;;;;;17.90;12.45;;;;;;;9.06;60.11;100268.31;1693912;83;20952;-72
2022/05/25 02:59:04;;;;;;;18.62;11.83;;;;;;;9.11;59.93;100272.77;1697221;84;21116;-72
2022/05/25 03:01:30;;;;;;;15.90;11.93;;;;;;;9.17;59.93;100277.59;1709678;84;21510;-72
2022/05/25 03:03:57;;;;;;;18.57;12.23;;;;;;;9.22;59.77;100267.17;1701289;83;21790;-71
2022/05/25 03:06:23;;;;;;;19.15;11.73;;;;;;;9.27;59.72;100262.41;1709572;82;21018;-71
2022/05/25 03:08:50;;;;;;;16.73;10.80;;;;;;;9.32;59.54;100266.84;1661230;86;21017;-71
2022/05/25 03:11:16;;;;;;;15.10;10.60;;;;;;;9.37;59.41;100269.50;1705866;84;21024;-72
2022/05/25 03:13:47;;;;;;;17.17;10.58;;;;;;;9.42;59.25;100267.81;1698609;84;21052;-72
2022/05/25 03:16:13;;;;;;;13.85;9.73;;;;;;;9.48;59.12;100271.31;1661301;84;21945;-72
2022/05/25 03:18:40;;;;;;;14.80;9.85;;;;;;;9.56;59.01;100276.01;1701725;84;20941;-72
2022/05/25 03:21:08;;;;;;;14.33;9.45;;;;;;;9.61;58.86;100277.31;1708492;84;20957;-72
2022/05/25 03:23:36;;;;;;;13.50;9.45;;;;;;;9.67;58.79;100282.13;1639300;85;21682;-72
2022/05/25 03:26:03;;;;;;;14.47;9.60;;;;;;;9.75;58.73;100277.11;1682289;84;21174;-72
2022/05/25 03:28:30;;;;;;;13.20;8.83;;;;;;;9.83;58.67;100284.40;1708142;84;21773;-71
2022/05/25 03:30:56;;;;;;;14.98;9.00;;;;;;;9.90;58.49;100281.66;1705256;83;21458;-72
2022/05/25 03:33:24;;;;;;;14.35;9.00;;;;;;;9.97;58.34;100280.70;1695378;83;21064;-74
2022/05/25 03:35:51;;;;;;;11.95;8.15;;;;;;;10.06;58.22;100289.22;1708489;84;21057;-71
2022/05/25 03:38:17;;;;;;;12.35;7.92;;;;;;;10.14;58.11;100289.94;1702803;84;21374;-73
2022/05/25 03:40:44;;;;;;;13.98;8.70;;;;;;;10.21;57.85;100291.11;1699908;82;22003;-73
2022/05/25 03:43:12;;;;;;;13.13;8.08;;;;;;;10.29;57.73;100289.58;1697716;84;21063;-73
2022/05/25 03:45:39;;;;;;;16.82;8.98;;;;;;;10.41;57.56;100292.20;1678350;83;21036;-73
2022/05/25 03:48:07;;;;;;;15.95;7.87;;;;;;;10.48;57.26;100288.95;1717432;83;20973;-73
2022/05/25 03:50:35;;;;;;;13.32;8.18;;;;;;;10.58;57.11;100297.81;1680894;84;21085;-73
2022/05/25 03:53:02;;;;;;;15.85;7.78;;;;;;;10.68;56.96;100297.91;1664763;85;21804;-74
2022/05/25 03:55:29;;;;;;;14.30;7.40;;;;;;;10.79;56.99;100301.83;1664792;84;20893;-73
2022/05/25 03:57:55;;;;;;;14.25;7.53;;;;;;;10.92;56.52;100296.41;1655544;85;20977;-73
2022/05/25 04:00:22;;;;;;;12.05;7.95;;;;;;;11.04;56.06;100295.88;1684238;85;21544;-72
2022/05/25 04:02:50;;;;;;;13.35;7.60;;;;;;;11.15;55.90;100301.94;1652770;85;21368;-72
2022/05/25 04:05:16;;;;;;;13.15;7.85;;;;;;;11.27;55.85;100296.11;1664216;85;22570;-73
2022/05/25 04:07:45;;;;;;;12.65;7.72;;;;;;;11.38;55.82;100293.40;1652280;86;21513;-73
2022/05/25 04:10:16;;;;;;;12.60;7.12;;;;;;;11.50;55.46;100291.55;1665306;85;21029;-73
2022/05/25 04:12:45;;;;;;;11.95;6.47;;;;;;;11.63;55.13;100291.34;1651754;85;21060;-73
2022/05/25 04:15:16;;;;;;;10.38;6.37;;;;;;;11.74;55.06;100296.06;1655379;85;21094;-73
2022/05/25 04:17:44;;;;;;;10.08;6.45;;;;;;;11.86;54.91;100296.84;1678807;84;21865;-73
2022/05/25 04:20:11;;;;;;;10.80;6.58;;;;;;;11.98;54.84;100295.81;1665372;85;21147;-73
2022/05/25 04:22:39;;;;;;;10.08;6.67;;;;;;;12.09;54.80;100295.37;1664957;84;21424;-73
2022/05/25 04:25:10;;;;;;;13.65;7.00;;;;;;;12.21;54.70;100294.29;1673462;85;20975;-73
2022/05/25 04:27:38;;;;;;;9.00;6.10;;;;;;;12.31;54.53;100295.99;1717047;83;20988;-73
2022/05/25 04:30:08;;;;;;;9.70;6.12;;;;;;;12.41;54.51;100297.34;1718342;82;21928;-73
2022/05/25 04:32:34;;;;;;;9.78;6.42;;;;;;;12.52;54.21;100294.58;1716925;82;20968;-73
2022/05/25 04:35:02;;;;;;;8.70;5.72;;;;;;;12.66;53.85;100301.31;1720693;83;21450;-72
2022/05/25 04:40:14;;;;;;;10.25;6.25;;;;;;;12.91;53.24;100305.23;1664556;86;21024;-72
2022/05/25 04:42:43;;;;;;;10.82;6.15;;;;;;;13.06;52.92;100305.19;1665319;84;21849;-72
2022/05/25 04:45:10;;;;;;;11.90;6.17;;;;;;;13.17;52.66;100307.70;1664390;85;21013;-72
2022/05/25 04:47:38;;;;;;;8.95;5.92;;;;;;;13.31;52.67;100307.78;1661618;85;20970;-72
2022/05/25 04:50:07;;;;;;;12.47;6.67;;;;;;;13.45;52.40;100310.01;1739709;81;21065;-73
2022/05/25 04:52:36;;;;;;;8.98;6.45;;;;;;;13.59;51.99;100307.39;1727791;83;21013;-74
2022/05/25 04:55:05;;;;;;;12.58;6.17;;;;;;;13.74;51.66;100312.61;1725043;82;21775;-74
2022/05/25 04:57:32;;;;;;;12.10;6.20;;;;;;;13.87;51.61;100317.59;1687523;84;21086;-73
2022/05/25 05:00:02;;;;;;;17.05;6.30;;;;;;;14.03;51.05;100319.66;1663629;85;21514;-74
2022/05/25 05:02:29;;;;;;;9.93;5.53;;;;;;;14.20;50.32;100319.38;1654640;85;21077;-74
2022/05/25 05:04:58;;;;;;;8.75;5.62;;;;;;;14.41;49.79;100320.47;1663119;84;21140;-75
2022/05/25 05:07:33;;;;;;;12.23;5.35;;;;;;;14.58;49.51;100322.37;1637478;86;21784;-74
2022/05/25 05:10:03;;;;;;;9.05;4.97;;;;;;;14.74;49.17;100321.70;1655868;85;21603;-75
2022/05/25 05:12:30;;;;;;;8.23;4.72;;;;;;;14.89;48.59;100322.37;1657174;85;21109;-74
2022/05/25 05:15:00;;;;;;;6.95;4.80;;;;;;;15.02;48.05;100319.83;1724264;82;21102;-73
2022/05/25 05:17:27;;;;;;;10.35;4.80;;;;;;;15.13;47.68;100315.61;1721992;83;21053;-73
2022/05/25 05:19:58;;;;;;;7.65;4.28;;;;;;;15.25;47.42;100314.41;1725788;81;21947;-73
2022/05/25 05:22:24;;;;;;;7.05;3.87;;;;;;;15.39;47.04;100319.16;1724272;81;20951;-74
2022/05/25 05:24:51;;;;;;;6.95;3.75;;;;;;;15.58;46.25;100317.31;1685021;84;21694;-74
2022/05/25 05:27:17;;;;;;;5.17;3.45;;;;;;;15.72;46.04;100316.77;1664112;86;21068;-73
2022/05/25 05:29:44;;;;;;;5.08;3.30;;;;;;;15.86;45.29;100314.87;1659522;85;20982;-75
2022/05/25 05:32:11;;;;;;;6.22;3.10;;;;;;;16.01;44.32;100317.77;1724970;82;22726;-75
2022/05/25 05:34:39;;;;;;;4.22;2.27;;;;;;;16.15;43.85;100321.69;1687209;84;21094;-75
2022/05/25 05:37:16;;;;;;;4.60;2.20;;;;;;;16.29;42.58;100323.75;1683620;84;21115;-75
2022/05/25 05:39:46;;;;;;;5.75;2.10;;;;;;;16.45;42.51;100330.48;1728726;81;21363;-75
2022/05/25 05:42:14;;;;;;;3.40;1.87;;;;;;;16.59;42.05;100332.52;1725679;83;21058;-73
2022/05/25 05:44:52;;;;;;;5.33;2.15;;;;;;;16.77;41.68;100329.78;1748065;81;22663;-74
2022/05/25 05:47:23;;;;;;;3.08;1.45;;;;;;;16.95;40.43;100332.33;1681338;84;21054;-74
2022/05/25 05:49:49;;;;;;;2.80;1.80;;;;;;;17.12;39.84;100332.70;1683303;85;21067;-74
2022/05/25 05:52:16;;;;;;;2.30;1.60;;;;;;;17.27;39.94;100330.19;1652035;85;21021;-74
2022/05/25 05:54:44;;;;;;;4.08;1.82;;;;;;;17.41;38.49;100328.70;1650543;85;21076;-73
2022/05/25 05:57:12;;;;;;;2.77;1.62;;;;;;;17.54;38.56;100330.86;1681499;83;21956;-72
2022/05/25 05:59:39;;;;;;;3.67;1.77;;;;;;;17.65;38.62;100331.34;1684804;83;21015;-72
2022/05/25 06:02:06;;;;;;;1.70;1.55;;;;;;;17.76;38.33;100326.69;1651116;86;21072;-73
2022/05/25 06:04:34;;;;;;;2.27;1.60;;;;;;;17.86;37.90;100324.70;1684699;83;21020;-72
2022/05/25 06:07:00;;;;;;;2.75;1.75;;;;;;;17.98;37.32;100334.02;1644848;86;21542;-75
2022/05/25 06:09:27;;;;;;;3.47;1.60;;;;;;;18.09;37.43;100332.82;1663503;85;21954;-73
2022/05/25 06:11:53;;;;;;;2.40;1.77;;;;;;;18.18;37.25;100333.13;1663092;86;21045;-77
2022/05/25 06:14:20;;;;;;;2.15;1.35;;;;;;;18.29;37.05;100329.58;1665201;84;21084;-76
2022/05/25 06:19:37;;;;;;;2.98;1.40;;;;;;;18.54;35.64;100337.00;1677979;84;21513;-74
2022/05/25 06:22:10;;;;;;;2.45;1.37;;;;;;;18.70;35.40;100335.27;1663246;85;22622;-75
2022/05/25 06:24:40;;;;;;;;;;;;;;;18.82;34.99;100335.23;1648974;86;20990;-73
2022/05/25 06:27:11;;;;;;;5.97;1.47;;;;;;;18.94;35.14;100335.15;1651756;85;20454;-75
2022/05/25 06:29:50;;;;;;;7.08;1.98;;;;;;;19.04;35.31;100336.26;1648300;85;21061;-76
2022/05/25 06:32:16;;;;;;;3.58;1.50;;;;;;;19.11;34.99;100339.39;1641697;85;21085;-75
2022/05/25 06:34:50;;;;;;;3.50;1.47;;;;;;;19.21;35.29;100335.14;1650511;86;21858;-76
2022/05/25 06:37:20;;;;;;;3.42;1.42;;;;;;;19.33;35.25;100329.68;1671666;83;21067;-74
2022/05/25 06:39:46;;;;;;;1.25;1.02;;;;;;;19.45;34.20;100336.78;1700098;83;21059;-75
2022/05/25 06:42:12;;;;;;;3.50;1.35;;;;;;;19.54;32.40;100333.52;1677552;83;21064;-73
2022/05/25 06:44:42;;;;;;;2.20;1.25;;;;;;;19.59;32.17;100331.16;1681114;83;21063;-75
2022/05/25 06:47:09;;;;;;;3.00;1.55;;;;;;;19.66;32.22;100334.78;1669551;83;22014;-71
2022/05/25 06:49:36;;;;;;;2.27;1.30;;;;;;;19.78;33.09;100335.16;1654483;86;21043;-75
2022/05/25 06:52:07;;;;;;;3.95;1.20;;;;;;;19.92;33.28;100333.86;1618245;88;21076;-71
2022/05/25 06:54:34;;;;;;;2.85;1.00;;;;;;;20.01;31.16;100334.10;1575626;88;21579;-69
2022/05/25 06:57:01;;;;;;;2.40;0.88;;;;;;;20.09;30.83;100339.89;1655326;86;21053;-72
2022/05/25 06:59:29;;;;;;;2.30;0.90;;;;;;;20.14;29.88;100345.52;1619817;86;21694;-73
2022/05/25 07:01:55;;;;;;;1.77;1.00;;;;;;;20.18;28.98;100344.15;1623831;87;21045;-76
2022/05/25 07:04:21;;;;;;;2.25;1.07;;;;;;;20.21;28.93;100342.94;1633125;86;21111;-72
2022/05/25 07:06:48;;;;;;;2.87;1.07;;;;;;;20.25;28.29;100342.37;1599278;87;21485;-75
2022/05/25 07:09:15;;;;;;;2.47;1.40;;;;;;;20.34;28.86;100342.28;1638303;87;21058;-69
2022/05/25 07:11:42;;;;;;;1.72;1.00;;;;;;;20.43;28.85;100348.73;1624032;87;22520;-71
2022/05/25 07:14:10;;;;;;;12.58;2.12;;;;;;;20.46;28.71;100344.36;1625058;86;21030;-73
2022/05/25 07:16:37;;;;;;;5.30;1.50;;;;;;;20.43;27.61;100352.75;1618370;87;21507;-73
2022/05/25 07:19:04;;;;;;;2.77;1.52;;;;;;;20.44;28.14;100350.91;1642136;86;21316;-75
2022/05/25 07:21:31;;;;;;;3.25;1.37;;;;;;;20.48;28.54;100347.67;1647559;85;21168;-74
2022/05/25 07:23:58;;;;;;;2.08;1.20;;;;;;;20.55;29.25;100348.57;1640005;87;21955;-74
2022/05/25 07:26:27;;;;;;;3.92;1.35;;;;;;;20.68;28.67;100348.44;1627925;88;21076;-73
2022/05/25 07:28:54;;;;;;;2.67;1.00;;;;;;;20.77;29.23;100354.84;1647889;87;22052;-75
2022/05/25 07:31:42;;;;;;;3.33;1.30;;;;;;;20.92;28.22;100346.74;1650222;85;21328;-82
2022/05/25 07:34:22;;;;;;;2.83;1.60;;;;;;;21.09;28.03;100346.00;1624990;86;21066;-78
2022/05/25 07:36:56;;;;;;;3.55;1.50;;;;;;;21.14;28.71;100347.11;1626156;87;21924;-80
2022/05/25 07:39:34;;;;;;;3.40;1.60;;;;;;;21.20;29.11;100349.52;1627560;86;21103;-80
2022/05/25 07:42:02;;;;;;;2.45;1.17;;;;;;;21.30;29.00;100347.89;1627057;86;21049;-79
2022/05/25 07:44:33;;;;;;;2.25;1.15;;;;;;;21.37;28.56;100355.00;1627009;87;21106;-75
2022/05/25 07:46:59;;;;;;;3.25;1.22;;;;;;;21.41;26.96;100350.06;1630698;85;20894;-81
2022/05/25 07:49:28;;;;;;;3.87;1.60;;;;;;;21.46;28.03;100343.61;1678802;83;22564;-79
2022/05/25 07:51:55;;;;;;;4.67;1.47;;;;;;;21.56;28.48;100350.83;1636644;86;21076;-78
2022/05/25 07:54:22;;;;;;;5.28;1.72;;;;;;;21.67;28.60;100337.37;1692364;83;22104;-77
2022/05/25 07:56:48;;;;;;;2.67;1.40;;;;;;;21.80;29.21;100340.14;1713497;82;21019;-80
2022/05/25 07:59:15;;;;;;;2.47;1.55;;;;;;;21.99;27.58;100335.42;1684530;85;21055;-76
2022/05/25 08:07:23;;;;;;;10.23;4.60;;;;;;;22.26;27.78;100333.75;1653468;85;21044;-76
2022/05/25 08:09:51;;;;;;;7.85;3.20;;;;;;;22.41;27.13;100339.02;1650083;86;21101;-74
2022/05/25 08:12:19;;;;;;;9.65;3.27;;;;;;;22.53;27.94;100338.76;1664256;84;21081;-75
2022/05/25 08:14:48;;;;;;;3.22;2.10;;;;;;;22.66;27.64;100347.39;1682431;83;21930;-76
2022/05/25 08:17:14;;;;;;;3.65;1.45;;;;;;;22.71;27.21;100338.22;1684970;83;21073;-77
2022/05/25 08:19:40;;;;;;;6.70;1.92;;;;;;;22.72;26.79;100344.42;1683875;83;21516;-75
2022/05/25 08:22:09;;;;;;;2.58;1.42;;;;;;;22.76;27.92;100357.78;1663445;84;21047;-76
2022/05/25 08:24:37;;;;;;;2.85;1.20;;;;;;;22.91;26.55;100354.47;1662989;85;21482;-74
2022/05/25 08:27:05;;;;;;;2.02;1.10;;;;;;;22.97;25.96;100355.50;1664147;84;22512;-71
2022/05/25 08:29:31;;;;;;;2.12;0.70;;;;;;;22.98;25.16;100353.16;1664894;84;21674;-71
2022/05/25 08:31:58;;;;;;;1.42;0.78;;;;;;;22.98;24.42;100359.37;1681809;84;21043;-71
2022/05/25 08:34:26;;;;;;;1.47;1.00;;;;;;;22.91;23.18;100359.02;1663947;84;21029;-73
2022/05/25 08:36:52;;;;;;;2.30;0.85;;;;;;;22.79;24.05;100358.23;1644587;84;21079;-72
2022/05/25 08:39:19;;;;;;;1.12;0.88;;;;;;;22.74;23.95;100356.65;1664301;84;21924;-71
2022/05/25 08:41:46;;;;;;;1.20;1.10;;;;;;;22.69;24.13;100358.30;1663604;84;21172;-72
2022/05/25 08:44:12;;;;;;;1.32;0.85;;;;;;;22.67;23.80;100362.52;1663784;84;21063;-75
2022/05/25 08:46:39;;;;;;;4.05;0.88;;;;;;;22.60;23.01;100356.30;1670556;84;21027;-72
2022/05/25 08:49:13;;;;;;;4.67;0.80;;;;;;;22.54;23.65;100364.64;1657281;84;21055;-73
2022/05/25 08:51:50;;;;;;;1.77;1.10;;;;;;;22.52;23.95;100364.53;1655230;86;21080;-72
2022/05/25 08:54:18;;;;;;;2.00;0.98;;;;;;;22.55;24.18;100376.23;1629307;86;21536;-74
2022/05/25 08:56:59;;;;;;;2.15;1.00;;;;;;;22.54;24.34;100366.51;1654634;85;21130;-74
2022/05/25 08:59:41;;;;;;;1.92;1.00;;;;;;;22.55;23.95;100367.65;1653657;85;21108;-73
2022/05/25 09:02:16;;;;;;;6.67;1.30;;;;;;;22.63;24.65;100364.48;1650873;85;21079;-73
2022/05/25 09:04:55;;;;;;;6.78;1.20;;;;;;;22.78;24.33;100362.48;1656328;85;23056;-74
2022/05/25 09:07:59;;;;;;;2.40;0.82;;;;;;;22.95;24.48;100357.06;1654981;85;21592;-75
2022/05/25 09:10:25;;;;;;;1.65;0.90;;;;;;;23.09;23.82;100353.38;1654923;85;21039;-74
2022/05/25 09:13:03;;;;;;;1.57;0.80;;;;;;;23.13;23.72;100360.52;1656391;85;21980;-72
2022/05/25 09:15:34;;;;;;;1.52;1.00;;;;;;;23.14;22.68;100358.14;1648950;85;21072;-74
2022/05/25 09:18:13;;;;;;;1.70;0.90;;;;;;;23.15;22.97;100361.14;1628315;86;21842;-73
2022/05/25 09:20:47;;;;;;;2.65;0.80;;;;;;;23.25;22.65;100360.75;1655456;85;21464;-73
2022/05/25 09:23:16;;;;;;;2.25;1.02;;;;;;;23.38;22.88;100362.14;1654240;86;21040;-72
2022/05/25 09:25:44;;;;;;;2.22;0.98;;;;;;;23.59;23.40;100363.84;1628523;87;21083;-72
2022/05/25 09:28:20;;;;;;;1.60;1.10;;;;;;;23.83;22.68;100349.71;1642728;86;21075;-74
2022/05/25 09:30:50;;;;;;;4.33;1.10;;;;;;;23.94;22.47;100355.84;1656243;85;22591;-75
2022/05/25 09:33:36;;;;;;;2.25;1.10;;;;;;;23.86;22.19;100337.17;1630906;86;21040;-75
2022/05/25 09:36:11;;;;;;;1.57;1.02;;;;;;;23.83;22.62;100341.63;1655478;86;21075;-73
2022/05/25 09:38:48;;;;;;;3.10;1.95;;;;;;;23.96;22.66;100344.32;1656356;85;21065;-73
2022/05/25 09:41:21;;;;;;;2.33;1.50;;;;;;;24.12;22.89;100335.45;1651512;86;21541;-73
2022/05/25 09:43:54;;;;;;;3.98;1.10;;;;;;;24.35;22.78;100330.45;1655367;86;22424;-72
2022/05/25 09:46:37;;;;;;;3.33;1.10;;;;;;;24.46;22.40;100328.96;1655433;85;21055;-74
2022/05/25 09:49:11;;;;;;;2.75;1.27;;;;;;;24.48;22.62;100325.00;1626423;86;21579;-74
2022/05/25 09:51:44;;;;;;;3.65;1.50;;;;;;;24.58;22.13;100321.02;1648217;85;27306;-74
2022/05/25 09:54:21;;;;;;;3.53;1.87;;;;;;;24.65;22.15;100324.52;1645100;85;21648;-76
2022/05/25 09:57:07;;;;;;;2.42;1.50;;;;;;;24.80;22.36;100325.05;1703357;84;21903;-73
2022/05/25 09:59:43;;;;;;;1.35;0.80;;;;;;;24.95;22.13;100329.66;1695359;84;21565;-74
2022/05/25 10:02:49;;;;;;;1.62;1.10;;;;;;;24.96;22.54;100325.91;1683891;84;21484;-79
2022/05/25 10:05:28;;;;;;;1.67;0.90;;;;;;;24.93;21.70;100330.41;1693836;83;21007;-75
2022/05/25 10:08:07;;;;;;;4.28;1.22;;;;;;;24.79;22.27;100331.50;1690395;84;21070;-75
2022/05/25 10:10:46;;;;;;;4.22;1.20;;;;;;;24.78;23.04;100328.49;1701213;82;21394;-74
2022/05/25 10:13:16;;;;;;;3.08;1.50;;;;;;;24.93;23.73;100314.19;1689974;84;21492;-75
2022/05/25 10:15:51;;;;;;;4.83;1.80;;;;;;;25.18;22.54;100315.59;1694573;83;20987;-74
2022/05/25 10:18:14;;;;;;;3.50;1.40;;;;;;;25.30;22.97;100315.75;1691200;84;21252;-75
2022/05/25 10:20:45;;;;;;;3.80;1.98;;;;;;;25.50;23.84;100316.41;1694137;83;21108;-74
2022/05/25 10:23:23;;;;;;;2.90;1.35;;;;;;;25.70;23.68;100312.22;1690813;83;21815;-74
2022/05/25 10:25:53;;;;;;;2.58;1.20;;;;;;;25.87;22.71;100310.59;1690907;83;21039;-75
2022/05/25 10:28:30;;;;;;;2.50;1.30;;;;;;;26.00;22.48;100305.56;1698361;82;21103;-74
2022/05/25 10:37:24;;;;;;;2.20;1.20;;;;;;;26.29;21.70;100300.45;1696626;82;23352;-76
2022/05/25 10:39:59;;;;;;;1.47;1.07;;;;;;;26.12;21.18;100301.05;1698732;82;21466;-75
2022/05/25 10:42:32;;;;;;;1.82;1.10;;;;;;;25.93;21.12;100300.74;1697995;82;21031;-77
2022/05/25 10:45:20;;;;;;;3.90;1.00;;;;;;;25.90;22.15;100298.49;1708918;82;21060;-77
2022/05/25 10:48:07;;;;;;;1.62;1.17;;;;;;;26.02;21.67;100299.39;1692669;82;21598;-75
2022/05/25 10:50:48;;;;;;;2.15;1.20;;;;;;;26.12;22.19;100309.70;1721354;81;22009;-76
2022/05/25 10:53:41;;;;;;;4.00;1.20;;;;;;;26.23;22.53;100308.42;1719033;81;21063;-81
2022/05/25 10:56:29;;;;;;;2.50;1.02;;;;;;;26.29;22.80;100301.81;1724636;81;21052;-76
2022/05/25 10:59:18;;;;;;;1.90;1.20;;;;;;;26.54;22.58;100308.00;1711365;82;21087;-74
2022/05/25 11:02:10;;;;;;;3.58;1.25;;;;;;;26.78;23.07;100311.09;1715027;81;21039;-74
2022/05/25 11:04:52;;;;;;;4.90;1.80;;;;;;;26.85;21.62;100302.06;1722141;83;21942;-77
2022/05/25 11:07:35;;;;;;;6.15;1.35;;;;;;;26.65;21.44;100296.39;1722601;81;21522;-76
2022/05/25 11:10:40;;;;;;;1.65;1.00;;;;;;;26.60;21.71;100297.59;1728790;81;21048;-73
2022/05/25 11:13:29;;;;;;;1.65;1.10;;;;;;;26.64;21.84;100306.93;1715995;81;21087;-77
2022/05/25 11:16:05;;;;;;;3.40;1.27;;;;;;;26.84;22.13;100302.59;1719294;83;21094;-76
2022/05/25 11:18:47;;;;;;;3.72;1.10;;;;;;;27.06;20.70;100292.91;1718362;83;22240;-77
2022/05/25 11:21:38;;;;;;;2.45;1.25;;;;;;;27.15;21.95;100293.39;1695360;84;21071;-70
2022/05/25 11:24:32;;;;;;;3.50;1.15;;;;;;;27.38;21.96;100288.53;1724232;83;21154;-77
2022/05/25 11:27:34;;;;;;;5.05;1.20;;;;;;;27.73;22.31;100282.34;1716495;83;20986;-78
2022/05/25 11:30:24;;;;;;;2.87;1.20;;;;;;;28.12;21.84;100271.25;1746863;81;21563;-75
2022/05/25 11:33:09;;;;;;;3.98;1.20;;;;;;;28.44;20.27;100271.13;1742331;81;21942;-72
2022/05/25 11:36:07;;;;;;;3.27;1.07;;;;;;;28.63;20.76;100275.84;1720029;81;21111;-74
2022/05/25 11:38:59;;;;;;;1.80;1.20;;;;;;;28.59;20.16;100279.30;1717933;81;21612;-75
2022/05/25 11:41:44;;;;;;;3.92;1.10;;;;;;;28.53;20.98;100278.36;1698680;83;21293;-76
2022/05/25 11:44:31;;;;;;;3.83;1.22;;;;;;;28.62;20.79;100274.73;1724960;81;21043;-78
2022/05/25 11:47:12;;;;;;;2.98;1.27;;;;;;;28.71;21.40;100279.53;1698409;83;22352;-76
2022/05/25 11:50:00;;;;;;;2.83;1.27;;;;;;;28.72;19.22;100279.81;1697055;81;21090;-77
2022/05/25 11:52:54;;;;;;;2.08;1.05;;;;;;;28.40;19.17;100276.77;1715907;81;21443;-75
2022/05/25 11:55:56;;;;;;;5.17;1.72;;;;;;;28.00;19.62;100275.36;1732167;82;21443;-72
2022/05/25 11:58:45;;;;;;;8.60;1.30;;;;;;;27.85;20.77;100266.33;1723589;81;21075;-75
2022/05/25 12:01:46;;;;;;;5.28;1.32;;;;;;;28.12;21.23;100264.47;1722487;81;22487;-75
2022/05/25 12:04:30;;;;;;;3.35;1.07;;;;;;;28.41;20.73;100264.83;1730633;81;21048;-75
2022/05/25 12:07:35;;;;;;;4.28;1.02;;;;;;;28.76;20.32;100265.23;1733488;81;21527;-75
2022/05/25 12:10:28;;;;;;;4.78;1.20;;;;;;;29.01;20.15;100264.33;1648323;81;21117;-76
2022/05/25 12:13:02;;;;;;;2.10;1.10;;;;;;;29.18;20.87;100275.77;1722141;82;21095;-77